sensor_id;sensor_type;location;lat;lon;timestamp;P1;durP1;ratioP1;P2;durP2;ratioP2
37943;SDS011;23767;42.024;23.086;2023-03-04T00:01:14;11.27;;;7.47;;
37943;SDS011;23767;42.024;23.086;2023-03-04T00:03:40;11.23;;;8.10;;
37943;SDS011;23767;42.024;23.086;2023-03-04T00:06:06;10.40;;;7.85;;
37943;SDS011;23767;42.024;23.086;2023-03-04T00:08:33;13.70;;;8.98;;
37943;SDS011;23767;42.024;23.086;2023-03-04T00:10:59;11.18;;;7.68;;
37943;SDS011;23767;42.024;23.086;2023-03-04T00:13:25;11.45;;;8.75;;
37943;SDS011;23767;42.024;23.086;2023-03-04T00:15:51;10.15;;;7.85;;
37943;SDS011;23767;42.024;23.086;2023-03-04T00:18:17;11.75;;;8.88;;
37943;SDS011;23767;42.024;23.086;2023-03-04T00:20:45;10.30;;;7.72;;
37943;SDS011;23767;42.024;23.086;2023-03-04T00:23:11;12.65;;;8.00;;
37943;SDS011;23767;42.024;23.086;2023-03-04T00:25:37;12.00;;;9.45;;
37943;SDS011;23767;42.024;23.086;2023-03-04T00:28:03;11.70;;;9.15;;
37943;SDS011;23767;42.024;23.086;2023-03-04T00:30:29;12.75;;;10.05;;
37943;SDS011;23767;42.024;23.086;2023-03-04T00:32:56;12.75;;;9.23;;
37943;SDS011;23767;42.024;23.086;2023-03-04T00:35:22;12.38;;;9.30;;
37943;SDS011;23767;42.024;23.086;2023-03-04T00:37:48;13.32;;;9.40;;
37943;SDS011;23767;42.024;23.086;2023-03-04T00:40:14;14.00;;;8.88;;
37943;SDS011;23767;42.024;23.086;2023-03-04T00:42:40;10.88;;;8.20;;
37943;SDS011;23767;42.024;23.086;2023-03-04T00:45:06;10.43;;;8.07;;
37943;SDS011;23767;42.024;23.086;2023-03-04T00:47:32;11.70;;;8.77;;
37943;SDS011;23767;42.024;23.086;2023-03-04T00:49:58;11.43;;;7.97;;
37943;SDS011;23767;42.024;23.086;2023-03-04T00:52:24;11.27;;;7.22;;
37943;SDS011;23767;42.024;23.086;2023-03-04T00:54:50;12.13;;;7.80;;
37943;SDS011;23767;42.024;23.086;2023-03-04T00:57:17;11.88;;;7.50;;
37943;SDS011;23767;42.024;23.086;2023-03-04T00:59:43;9.43;;;6.40;;
37943;SDS011;23767;42.024;23.086;2023-03-04T01:02:10;10.48;;;6.38;;
37943;SDS011;23767;42.024;23.086;2023-03-04T01:04:36;10.32;;;6.68;;
37943;SDS011;23767;42.024;23.086;2023-03-04T01:07:02;8.77;;;5.82;;
37943;SDS011;23767;42.024;23.086;2023-03-04T01:09:28;8.95;;;5.25;;
37943;SDS011;23767;42.024;23.086;2023-03-04T01:11:55;9.25;;;5.68;;
37943;SDS011;23767;42.024;23.086;2023-03-04T01:14:21;10.35;;;6.07;;
37943;SDS011;23767;42.024;23.086;2023-03-04T01:16:48;13.15;;;6.40;;
37943;SDS011;23767;42.024;23.086;2023-03-04T01:19:14;10.20;;;5.95;;
37943;SDS011;23767;42.024;23.086;2023-03-04T01:21:40;10.23;;;5.53;;
37943;SDS011;23767;42.024;23.086;2023-03-04T01:24:06;8.82;;;5.90;;
37943;SDS011;23767;42.024;23.086;2023-03-04T01:26:32;11.15;;;6.32;;
37943;SDS011;23767;42.024;23.086;2023-03-04T01:28:58;10.10;;;6.07;;
37943;SDS011;23767;42.024;23.086;2023-03-04T01:31:24;10.50;;;6.03;;
37943;SDS011;23767;42.024;23.086;2023-03-04T01:33:50;9.65;;;6.10;;
37943;SDS011;23767;42.024;23.086;2023-03-04T01:36:16;9.88;;;6.55;;
37943;SDS011;23767;42.024;23.086;2023-03-04T01:38:42;10.18;;;6.20;;
37943;SDS011;23767;42.024;23.086;2023-03-04T01:41:08;10.27;;;7.20;;
37943;SDS011;23767;42.024;23.086;2023-03-04T01:43:35;11.55;;;7.80;;
37943;SDS011;23767;42.024;23.086;2023-03-04T01:46:02;14.32;;;8.82;;
37943;SDS011;23767;42.024;23.086;2023-03-04T01:48:32;13.65;;;8.65;;
37943;SDS011;23767;42.024;23.086;2023-03-04T01:51:01;14.50;;;9.60;;
37943;SDS011;23767;42.024;23.086;2023-03-04T01:53:27;13.07;;;9.52;;
37943;SDS011;23767;42.024;23.086;2023-03-04T01:55:55;15.38;;;10.00;;
37943;SDS011;23767;42.024;23.086;2023-03-04T01:58:23;14.20;;;9.63;;
37943;SDS011;23767;42.024;23.086;2023-03-04T02:00:50;13.25;;;9.50;;
37943;SDS011;23767;42.024;23.086;2023-03-04T02:03:16;14.98;;;9.95;;
37943;SDS011;23767;42.024;23.086;2023-03-04T02:05:50;16.17;;;9.23;;
37943;SDS011;23767;42.024;23.086;2023-03-04T02:08:17;12.23;;;8.52;;
37943;SDS011;23767;42.024;23.086;2023-03-04T02:10:43;13.52;;;8.82;;
37943;SDS011;23767;42.024;23.086;2023-03-04T02:13:10;13.80;;;10.15;;
37943;SDS011;23767;42.024;23.086;2023-03-04T02:15:37;16.65;;;10.75;;
37943;SDS011;23767;42.024;23.086;2023-03-04T02:18:06;16.95;;;12.23;;
37943;SDS011;23767;42.024;23.086;2023-03-04T02:25:52;21.90;;;14.05;;
37943;SDS011;23767;42.024;23.086;2023-03-04T02:28:19;17.80;;;12.15;;
37943;SDS011;23767;42.024;23.086;2023-03-04T02:30:46;14.40;;;9.52;;
37943;SDS011;23767;42.024;23.086;2023-03-04T02:33:13;14.25;;;10.48;;
37943;SDS011;23767;42.024;23.086;2023-03-04T02:35:40;14.52;;;9.00;;
37943;SDS011;23767;42.024;23.086;2023-03-04T02:38:06;13.88;;;9.75;;
37943;SDS011;23767;42.024;23.086;2023-03-04T02:40:32;17.65;;;11.95;;
37943;SDS011;23767;42.024;23.086;2023-03-04T02:42:59;15.77;;;11.20;;
37943;SDS011;23767;42.024;23.086;2023-03-04T02:47:54;19.63;;;14.13;;
37943;SDS011;23767;42.024;23.086;2023-03-04T02:50:20;17.75;;;13.15;;
37943;SDS011;23767;42.024;23.086;2023-03-04T02:52:47;18.20;;;14.30;;
37943;SDS011;23767;42.024;23.086;2023-03-04T02:55:13;17.05;;;12.85;;
37943;SDS011;23767;42.024;23.086;2023-03-04T02:57:39;20.35;;;14.20;;
37943;SDS011;23767;42.024;23.086;2023-03-04T03:00:05;17.63;;;13.68;;
37943;SDS011;23767;42.024;23.086;2023-03-04T03:02:31;17.80;;;12.73;;
37943;SDS011;23767;42.024;23.086;2023-03-04T03:04:57;14.25;;;9.73;;
37943;SDS011;23767;42.024;23.086;2023-03-04T03:07:23;12.95;;;9.00;;
37943;SDS011;23767;42.024;23.086;2023-03-04T03:09:49;12.32;;;8.68;;
37943;SDS011;23767;42.024;23.086;2023-03-04T03:12:15;12.40;;;7.40;;
37943;SDS011;23767;42.024;23.086;2023-03-04T03:14:41;11.80;;;7.97;;
37943;SDS011;23767;42.024;23.086;2023-03-04T03:17:07;13.77;;;8.98;;
37943;SDS011;23767;42.024;23.086;2023-03-04T03:19:34;13.32;;;8.63;;
37943;SDS011;23767;42.024;23.086;2023-03-04T03:22:00;12.52;;;7.97;;
37943;SDS011;23767;42.024;23.086;2023-03-04T03:24:26;11.30;;;8.60;;
37943;SDS011;23767;42.024;23.086;2023-03-04T03:26:52;13.57;;;8.68;;
37943;SDS011;23767;42.024;23.086;2023-03-04T03:29:18;11.32;;;7.93;;
37943;SDS011;23767;42.024;23.086;2023-03-04T03:31:44;12.95;;;8.88;;
37943;SDS011;23767;42.024;23.086;2023-03-04T03:34:10;14.07;;;8.93;;
37943;SDS011;23767;42.024;23.086;2023-03-04T03:36:36;14.70;;;8.90;;
37943;SDS011;23767;42.024;23.086;2023-03-04T03:39:02;13.40;;;9.68;;
37943;SDS011;23767;42.024;23.086;2023-03-04T03:41:28;13.65;;;9.30;;
37943;SDS011;23767;42.024;23.086;2023-03-04T03:43:54;13.93;;;9.73;;
37943;SDS011;23767;42.024;23.086;2023-03-04T03:46:21;13.50;;;9.73;;
37943;SDS011;23767;42.024;23.086;2023-03-04T03:48:47;14.75;;;8.82;;
37943;SDS011;23767;42.024;23.086;2023-03-04T03:51:13;15.05;;;10.95;;
37943;SDS011;23767;42.024;23.086;2023-03-04T03:53:39;18.48;;;11.60;;
37943;SDS011;23767;42.024;23.086;2023-03-04T03:56:05;15.82;;;10.82;;
37943;SDS011;23767;42.024;23.086;2023-03-04T03:58:31;16.35;;;10.82;;
37943;SDS011;23767;42.024;23.086;2023-03-04T04:00:57;16.48;;;11.18;;
37943;SDS011;23767;42.024;23.086;2023-03-04T04:03:23;15.93;;;11.75;;
37943;SDS011;23767;42.024;23.086;2023-03-04T04:05:49;15.77;;;10.35;;
37943;SDS011;23767;42.024;23.086;2023-03-04T04:08:16;17.42;;;11.07;;
37943;SDS011;23767;42.024;23.086;2023-03-04T04:10:42;19.05;;;11.27;;
37943;SDS011;23767;42.024;23.086;2023-03-04T04:13:09;13.82;;;9.93;;
37943;SDS011;23767;42.024;23.086;2023-03-04T04:15:35;16.00;;;9.65;;
37943;SDS011;23767;42.024;23.086;2023-03-04T04:18:03;17.63;;;9.63;;
37943;SDS011;23767;42.024;23.086;2023-03-04T04:20:29;12.82;;;7.43;;
37943;SDS011;23767;42.024;23.086;2023-03-04T04:22:55;15.82;;;9.25;;
37943;SDS011;23767;42.024;23.086;2023-03-04T04:25:21;13.73;;;9.45;;
37943;SDS011;23767;42.024;23.086;2023-03-04T04:27:47;14.02;;;9.13;;
37943;SDS011;23767;42.024;23.086;2023-03-04T04:30:13;12.38;;;8.18;;
37943;SDS011;23767;42.024;23.086;2023-03-04T04:32:39;14.68;;;9.05;;
37943;SDS011;23767;42.024;23.086;2023-03-04T04:35:05;14.82;;;9.25;;
37943;SDS011;23767;42.024;23.086;2023-03-04T04:37:31;17.02;;;11.25;;
37943;SDS011;23767;42.024;23.086;2023-03-04T04:39:57;20.00;;;12.38;;
37943;SDS011;23767;42.024;23.086;2023-03-04T04:42:23;17.85;;;11.73;;
37943;SDS011;23767;42.024;23.086;2023-03-04T04:44:49;18.30;;;11.60;;
37943;SDS011;23767;42.024;23.086;2023-03-04T04:47:16;18.90;;;11.25;;
37943;SDS011;23767;42.024;23.086;2023-03-04T04:49:42;18.58;;;10.80;;
37943;SDS011;23767;42.024;23.086;2023-03-04T04:52:09;21.00;;;11.98;;
37943;SDS011;23767;42.024;23.086;2023-03-04T04:54:35;21.73;;;13.15;;
37943;SDS011;23767;42.024;23.086;2023-03-04T04:57:01;22.73;;;12.85;;
37943;SDS011;23767;42.024;23.086;2023-03-04T04:59:27;17.75;;;10.98;;
37943;SDS011;23767;42.024;23.086;2023-03-04T05:01:53;21.15;;;10.38;;
37943;SDS011;23767;42.024;23.086;2023-03-04T05:04:19;19.48;;;11.88;;
37943;SDS011;23767;42.024;23.086;2023-03-04T05:06:45;20.65;;;11.70;;
37943;SDS011;23767;42.024;23.086;2023-03-04T05:09:11;15.80;;;10.95;;
37943;SDS011;23767;42.024;23.086;2023-03-04T05:11:37;16.65;;;9.85;;
37943;SDS011;23767;42.024;23.086;2023-03-04T05:14:03;14.73;;;10.13;;
37943;SDS011;23767;42.024;23.086;2023-03-04T05:16:29;16.30;;;9.27;;
37943;SDS011;23767;42.024;23.086;2023-03-04T05:18:55;14.30;;;8.57;;
37943;SDS011;23767;42.024;23.086;2023-03-04T05:21:21;13.85;;;8.20;;
37943;SDS011;23767;42.024;23.086;2023-03-04T05:23:47;12.82;;;8.02;;
37943;SDS011;23767;42.024;23.086;2023-03-04T05:26:14;13.10;;;8.43;;
37943;SDS011;23767;42.024;23.086;2023-03-04T05:28:41;15.13;;;8.77;;
37943;SDS011;23767;42.024;23.086;2023-03-04T05:31:07;18.52;;;8.75;;
37943;SDS011;23767;42.024;23.086;2023-03-04T05:33:33;12.02;;;8.10;;
37943;SDS011;23767;42.024;23.086;2023-03-04T05:36:00;13.13;;;9.02;;
37943;SDS011;23767;42.024;23.086;2023-03-04T05:38:26;14.27;;;8.60;;
37943;SDS011;23767;42.024;23.086;2023-03-04T05:40:56;12.43;;;8.25;;
37943;SDS011;23767;42.024;23.086;2023-03-04T05:43:23;16.20;;;8.95;;
37943;SDS011;23767;42.024;23.086;2023-03-04T05:45:49;16.33;;;9.20;;
37943;SDS011;23767;42.024;23.086;2023-03-04T05:48:15;14.15;;;8.70;;
37943;SDS011;23767;42.024;23.086;2023-03-04T05:50:41;14.25;;;9.00;;
37943;SDS011;23767;42.024;23.086;2023-03-04T05:53:07;15.07;;;9.15;;
37943;SDS011;23767;42.024;23.086;2023-03-04T05:55:33;16.40;;;9.65;;
37943;SDS011;23767;42.024;23.086;2023-03-04T05:57:59;15.52;;;9.57;;
37943;SDS011;23767;42.024;23.086;2023-03-04T06:00:25;13.77;;;9.18;;
37943;SDS011;23767;42.024;23.086;2023-03-04T06:02:51;14.07;;;9.90;;
37943;SDS011;23767;42.024;23.086;2023-03-04T06:05:17;13.45;;;9.52;;
37943;SDS011;23767;42.024;23.086;2023-03-04T06:07:44;15.50;;;10.13;;
37943;SDS011;23767;42.024;23.086;2023-03-04T06:10:13;19.17;;;9.77;;
37943;SDS011;23767;42.024;23.086;2023-03-04T06:12:40;13.38;;;9.80;;
37943;SDS011;23767;42.024;23.086;2023-03-04T06:15:06;15.90;;;10.75;;
37943;SDS011;23767;42.024;23.086;2023-03-04T06:17:34;17.40;;;10.88;;
37943;SDS011;23767;42.024;23.086;2023-03-04T06:20:00;15.88;;;11.18;;
37943;SDS011;23767;42.024;23.086;2023-03-04T06:22:26;17.75;;;10.98;;
37943;SDS011;23767;42.024;23.086;2023-03-04T06:24:52;18.33;;;12.50;;
37943;SDS011;23767;42.024;23.086;2023-03-04T06:27:18;19.40;;;11.85;;
37943;SDS011;23767;42.024;23.086;2023-03-04T06:29:44;20.40;;;11.77;;
37943;SDS011;23767;42.024;23.086;2023-03-04T06:32:10;20.08;;;11.75;;
37943;SDS011;23767;42.024;23.086;2023-03-04T06:34:36;16.52;;;11.38;;
37943;SDS011;23767;42.024;23.086;2023-03-04T06:37:03;18.33;;;12.57;;
37943;SDS011;23767;42.024;23.086;2023-03-04T06:39:29;16.90;;;12.38;;
37943;SDS011;23767;42.024;23.086;2023-03-04T06:41:55;17.13;;;11.07;;
37943;SDS011;23767;42.024;23.086;2023-03-04T06:44:21;19.25;;;11.07;;
37943;SDS011;23767;42.024;23.086;2023-03-04T06:46:47;15.88;;;11.07;;
37943;SDS011;23767;42.024;23.086;2023-03-04T06:49:13;17.65;;;11.60;;
37943;SDS011;23767;42.024;23.086;2023-03-04T06:51:39;17.98;;;11.15;;
37943;SDS011;23767;42.024;23.086;2023-03-04T06:54:05;14.10;;;10.63;;
37943;SDS011;23767;42.024;23.086;2023-03-04T06:56:31;17.80;;;11.50;;
37943;SDS011;23767;42.024;23.086;2023-03-04T06:58:57;18.52;;;13.35;;
37943;SDS011;23767;42.024;23.086;2023-03-04T07:01:24;17.80;;;13.95;;
37943;SDS011;23767;42.024;23.086;2023-03-04T07:03:51;21.35;;;14.48;;
37943;SDS011;23767;42.024;23.086;2023-03-04T07:06:18;19.88;;;13.55;;
37943;SDS011;23767;42.024;23.086;2023-03-04T07:08:45;19.00;;;13.75;;
37943;SDS011;23767;42.024;23.086;2023-03-04T07:11:11;19.67;;;15.20;;
37943;SDS011;23767;42.024;23.086;2023-03-04T07:13:37;18.48;;;14.85;;
37943;SDS011;23767;42.024;23.086;2023-03-04T07:16:07;18.55;;;14.43;;
37943;SDS011;23767;42.024;23.086;2023-03-04T07:18:33;23.42;;;18.10;;
37943;SDS011;23767;42.024;23.086;2023-03-04T07:21:00;23.20;;;15.48;;
37943;SDS011;23767;42.024;23.086;2023-03-04T07:23:26;26.60;;;16.17;;
37943;SDS011;23767;42.024;23.086;2023-03-04T07:25:52;24.45;;;15.13;;
37943;SDS011;23767;42.024;23.086;2023-03-04T07:28:18;23.35;;;17.60;;
37943;SDS011;23767;42.024;23.086;2023-03-04T07:30:44;22.77;;;15.52;;
37943;SDS011;23767;42.024;23.086;2023-03-04T07:33:10;21.95;;;15.77;;
37943;SDS011;23767;42.024;23.086;2023-03-04T07:35:37;29.48;;;19.65;;
37943;SDS011;23767;42.024;23.086;2023-03-04T07:38:03;31.30;;;20.42;;
37943;SDS011;23767;42.024;23.086;2023-03-04T07:40:29;28.00;;;19.75;;
37943;SDS011;23767;42.024;23.086;2023-03-04T07:42:55;25.50;;;17.50;;
37943;SDS011;23767;42.024;23.086;2023-03-04T07:45:21;22.38;;;16.70;;
37943;SDS011;23767;42.024;23.086;2023-03-04T07:47:48;27.25;;;16.02;;
37943;SDS011;23767;42.024;23.086;2023-03-04T07:50:14;23.58;;;16.77;;
37943;SDS011;23767;42.024;23.086;2023-03-04T07:52:41;24.67;;;16.17;;
37943;SDS011;23767;42.024;23.086;2023-03-04T07:55:08;23.23;;;15.93;;
37943;SDS011;23767;42.024;23.086;2023-03-04T07:57:34;20.13;;;15.90;;
37943;SDS011;23767;42.024;23.086;2023-03-04T08:00:03;22.48;;;16.70;;
37943;SDS011;23767;42.024;23.086;2023-03-04T08:02:29;27.73;;;18.05;;
37943;SDS011;23767;42.024;23.086;2023-03-04T08:04:55;25.25;;;17.58;;
37943;SDS011;23767;42.024;23.086;2023-03-04T08:07:22;25.42;;;18.05;;
37943;SDS011;23767;42.024;23.086;2023-03-04T08:09:48;25.85;;;18.23;;
37943;SDS011;23767;42.024;23.086;2023-03-04T08:12:14;25.08;;;17.90;;
37943;SDS011;23767;42.024;23.086;2023-03-04T08:14:40;24.05;;;17.85;;
37943;SDS011;23767;42.024;23.086;2023-03-04T08:17:06;26.90;;;18.95;;
37943;SDS011;23767;42.024;23.086;2023-03-04T08:19:33;20.13;;;16.58;;
37943;SDS011;23767;42.024;23.086;2023-03-04T08:21:59;23.75;;;16.75;;
37943;SDS011;23767;42.024;23.086;2023-03-04T08:24:26;25.80;;;16.88;;
37943;SDS011;23767;42.024;23.086;2023-03-04T08:26:52;22.60;;;16.25;;
37943;SDS011;23767;42.024;23.086;2023-03-04T08:29:20;26.40;;;16.08;;
37943;SDS011;23767;42.024;23.086;2023-03-04T08:31:47;21.20;;;14.95;;
37943;SDS011;23767;42.024;23.086;2023-03-04T08:34:13;24.42;;;15.57;;
37943;SDS011;23767;42.024;23.086;2023-03-04T08:36:40;22.58;;;17.27;;
37943;SDS011;23767;42.024;23.086;2023-03-04T08:39:12;21.83;;;17.02;;
37943;SDS011;23767;42.024;23.086;2023-03-04T08:41:39;24.58;;;16.90;;
37943;SDS011;23767;42.024;23.086;2023-03-04T08:44:05;23.58;;;17.00;;
37943;SDS011;23767;42.024;23.086;2023-03-04T08:46:32;24.20;;;17.20;;
37943;SDS011;23767;42.024;23.086;2023-03-04T08:48:58;24.73;;;18.60;;
37943;SDS011;23767;42.024;23.086;2023-03-04T08:51:24;22.63;;;15.23;;
37943;SDS011;23767;42.024;23.086;2023-03-04T08:53:50;24.63;;;19.02;;
37943;SDS011;23767;42.024;23.086;2023-03-04T08:56:16;26.85;;;17.98;;
37943;SDS011;23767;42.024;23.086;2023-03-04T08:58:43;22.85;;;16.58;;
37943;SDS011;23767;42.024;23.086;2023-03-04T09:01:09;27.02;;;20.25;;
37943;SDS011;23767;42.024;23.086;2023-03-04T09:03:35;22.00;;;16.73;;
37943;SDS011;23767;42.024;23.086;2023-03-04T09:06:02;20.40;;;15.50;;
37943;SDS011;23767;42.024;23.086;2023-03-04T09:08:28;24.10;;;17.23;;
37943;SDS011;23767;42.024;23.086;2023-03-04T09:10:54;22.02;;;14.93;;
37943;SDS011;23767;42.024;23.086;2023-03-04T09:13:21;20.52;;;13.93;;
37943;SDS011;23767;42.024;23.086;2023-03-04T09:15:48;17.83;;;12.43;;
37943;SDS011;23767;42.024;23.086;2023-03-04T09:18:15;21.17;;;13.65;;
37943;SDS011;23767;42.024;23.086;2023-03-04T09:20:42;21.20;;;15.02;;
37943;SDS011;23767;42.024;23.086;2023-03-04T09:23:09;21.25;;;13.68;;
37943;SDS011;23767;42.024;23.086;2023-03-04T09:25:35;23.27;;;13.98;;
37943;SDS011;23767;42.024;23.086;2023-03-04T09:28:02;25.60;;;14.55;;
37943;SDS011;23767;42.024;23.086;2023-03-04T09:30:28;21.88;;;15.45;;
37943;SDS011;23767;42.024;23.086;2023-03-04T09:32:54;24.02;;;16.20;;
37943;SDS011;23767;42.024;23.086;2023-03-04T09:35:21;21.50;;;15.52;;
37943;SDS011;23767;42.024;23.086;2023-03-04T09:37:47;20.00;;;13.38;;
37943;SDS011;23767;42.024;23.086;2023-03-04T09:40:21;20.33;;;12.18;;
37943;SDS011;23767;42.024;23.086;2023-03-04T09:42:49;15.80;;;11.50;;
37943;SDS011;23767;42.024;23.086;2023-03-04T09:45:17;17.08;;;11.27;;
37943;SDS011;23767;42.024;23.086;2023-03-04T09:47:43;17.55;;;11.75;;
37943;SDS011;23767;42.024;23.086;2023-03-04T09:50:10;19.98;;;12.10;;
37943;SDS011;23767;42.024;23.086;2023-03-04T09:55:17;17.65;;;10.00;;
37943;SDS011;23767;42.024;23.086;2023-03-04T10:00:15;13.25;;;9.77;;
37943;SDS011;23767;42.024;23.086;2023-03-04T10:05:12;15.10;;;10.10;;
37943;SDS011;23767;42.024;23.086;2023-03-04T10:07:39;15.30;;;9.57;;
37943;SDS011;23767;42.024;23.086;2023-03-04T10:13:03;20.10;;;14.25;;
37943;SDS011;23767;42.024;23.086;2023-03-04T10:15:37;19.77;;;12.05;;
37943;SDS011;23767;42.024;23.086;2023-03-04T10:18:15;24.90;;;16.35;;
37943;SDS011;23767;42.024;23.086;2023-03-04T10:23:10;24.80;;;15.20;;
37943;SDS011;23767;42.024;23.086;2023-03-04T10:25:38;18.08;;;12.60;;
37943;SDS011;23767;42.024;23.086;2023-03-04T10:33:14;15.65;;;10.50;;
37943;SDS011;23767;42.024;23.086;2023-03-04T10:35:41;14.43;;;9.98;;
37943;SDS011;23767;42.024;23.086;2023-03-04T10:38:09;18.08;;;11.02;;
37943;SDS011;23767;42.024;23.086;2023-03-04T10:40:37;14.90;;;11.15;;
37943;SDS011;23767;42.024;23.086;2023-03-04T10:43:03;18.60;;;11.48;;
37943;SDS011;23767;42.024;23.086;2023-03-04T10:45:32;18.25;;;11.18;;
37943;SDS011;23767;42.024;23.086;2023-03-04T10:48:03;16.67;;;9.57;;
37943;SDS011;23767;42.024;23.086;2023-03-04T10:50:29;19.58;;;10.23;;
37943;SDS011;23767;42.024;23.086;2023-03-04T10:52:56;18.33;;;10.35;;
37943;SDS011;23767;42.024;23.086;2023-03-04T10:57:55;16.67;;;11.35;;
37943;SDS011;23767;42.024;23.086;2023-03-04T11:00:29;19.20;;;10.57;;
37943;SDS011;23767;42.024;23.086;2023-03-04T11:05:40;16.88;;;9.85;;
37943;SDS011;23767;42.024;23.086;2023-03-04T11:08:14;13.38;;;9.77;;
37943;SDS011;23767;42.024;23.086;2023-03-04T11:10:41;14.07;;;9.30;;
37943;SDS011;23767;42.024;23.086;2023-03-04T11:15:57;12.48;;;8.05;;
37943;SDS011;23767;42.024;23.086;2023-03-04T11:21:15;18.92;;;9.75;;
37943;SDS011;23767;42.024;23.086;2023-03-04T11:23:44;12.60;;;8.68;;
37943;SDS011;23767;42.024;23.086;2023-03-04T11:26:15;12.85;;;8.40;;
37943;SDS011;23767;42.024;23.086;2023-03-04T11:29:26;12.25;;;7.18;;
37943;SDS011;23767;42.024;23.086;2023-03-04T11:31:33;16.38;;;11.20;;
37943;SDS011;23767;42.024;23.086;2023-03-04T11:34:10;13.45;;;9.48;;
37943;SDS011;23767;42.024;23.086;2023-03-04T11:40:00;12.30;;;7.55;;
37943;SDS011;23767;42.024;23.086;2023-03-04T11:42:49;13.30;;;7.07;;
37943;SDS011;23767;42.024;23.086;2023-03-04T11:50:22;10.43;;;6.90;;
37943;SDS011;23767;42.024;23.086;2023-03-04T12:03:14;19.42;;;11.68;;
37943;SDS011;23767;42.024;23.086;2023-03-04T12:10:59;15.57;;;10.00;;
37943;SDS011;23767;42.024;23.086;2023-03-04T12:38:02;13.40;;;8.60;;
37943;SDS011;23767;42.024;23.086;2023-03-04T12:40:42;15.07;;;8.30;;
37943;SDS011;23767;42.024;23.086;2023-03-04T12:56:18;13.57;;;8.48;;
37943;SDS011;23767;42.024;23.086;2023-03-04T12:58:46;15.35;;;8.48;;
37943;SDS011;23767;42.024;23.086;2023-03-04T13:01:23;15.68;;;9.13;;
37943;SDS011;23767;42.024;23.086;2023-03-04T13:08:51;16.45;;;8.90;;
37943;SDS011;23767;42.024;23.086;2023-03-04T13:14:35;13.90;;;7.80;;
37943;SDS011;23767;42.024;23.086;2023-03-04T13:16:48;11.93;;;7.50;;
37943;SDS011;23767;42.024;23.086;2023-03-04T13:21:59;12.25;;;8.32;;
37943;SDS011;23767;42.024;23.086;2023-03-04T13:24:44;15.65;;;8.65;;
37943;SDS011;23767;42.024;23.086;2023-03-04T13:29:55;13.02;;;7.70;;
37943;SDS011;23767;42.024;23.086;2023-03-04T13:32:34;10.25;;;7.43;;
37943;SDS011;23767;42.024;23.086;2023-03-04T13:35:01;11.63;;;7.97;;
37943;SDS011;23767;42.024;23.086;2023-03-04T13:37:31;11.20;;;7.43;;
37943;SDS011;23767;42.024;23.086;2023-03-04T13:42:42;14.43;;;8.60;;
37943;SDS011;23767;42.024;23.086;2023-03-04T13:48:19;14.80;;;9.63;;
37943;SDS011;23767;42.024;23.086;2023-03-04T13:50:48;12.18;;;8.80;;
37943;SDS011;23767;42.024;23.086;2023-03-04T13:53:28;11.25;;;8.88;;
37943;SDS011;23767;42.024;23.086;2023-03-04T13:58:30;14.00;;;9.93;;
37943;SDS011;23767;42.024;23.086;2023-03-04T14:00:56;14.23;;;10.40;;
37943;SDS011;23767;42.024;23.086;2023-03-04T14:03:24;16.23;;;10.68;;
37943;SDS011;23767;42.024;23.086;2023-03-04T14:08:36;15.27;;;10.90;;
37943;SDS011;23767;42.024;23.086;2023-03-04T14:11:02;16.65;;;11.43;;
37943;SDS011;23767;42.024;23.086;2023-03-04T14:13:28;17.00;;;10.93;;
37943;SDS011;23767;42.024;23.086;2023-03-04T14:15:54;16.02;;;11.60;;
37943;SDS011;23767;42.024;23.086;2023-03-04T14:18:21;15.27;;;11.55;;
37943;SDS011;23767;42.024;23.086;2023-03-04T14:20:49;13.75;;;10.85;;
37943;SDS011;23767;42.024;23.086;2023-03-04T14:23:26;17.85;;;10.77;;
37943;SDS011;23767;42.024;23.086;2023-03-04T14:26:27;15.20;;;11.85;;
37943;SDS011;23767;42.024;23.086;2023-03-04T14:28:47;18.92;;;12.65;;
37943;SDS011;23767;42.024;23.086;2023-03-04T14:31:14;17.38;;;12.00;;
37943;SDS011;23767;42.024;23.086;2023-03-04T14:33:45;21.25;;;12.98;;
37943;SDS011;23767;42.024;23.086;2023-03-04T14:36:16;16.17;;;11.32;;
37943;SDS011;23767;42.024;23.086;2023-03-04T14:38:50;17.23;;;11.82;;
37943;SDS011;23767;42.024;23.086;2023-03-04T14:41:18;15.60;;;10.70;;
37943;SDS011;23767;42.024;23.086;2023-03-04T14:46:31;14.48;;;10.85;;
37943;SDS011;23767;42.024;23.086;2023-03-04T14:48:57;16.55;;;10.35;;
37943;SDS011;23767;42.024;23.086;2023-03-04T14:52:24;14.75;;;10.05;;
37943;SDS011;23767;42.024;23.086;2023-03-04T14:54:23;13.52;;;9.65;;
37943;SDS011;23767;42.024;23.086;2023-03-04T14:56:50;13.15;;;10.00;;
37943;SDS011;23767;42.024;23.086;2023-03-04T14:59:16;14.93;;;10.23;;
37943;SDS011;23767;42.024;23.086;2023-03-04T15:01:42;14.38;;;10.45;;
37943;SDS011;23767;42.024;23.086;2023-03-04T15:04:10;16.00;;;10.00;;
37943;SDS011;23767;42.024;23.086;2023-03-04T15:06:37;16.13;;;10.20;;
37943;SDS011;23767;42.024;23.086;2023-03-04T15:09:15;12.80;;;9.23;;
37943;SDS011;23767;42.024;23.086;2023-03-04T15:11:44;15.82;;;10.48;;
37943;SDS011;23767;42.024;23.086;2023-03-04T15:16:55;13.35;;;9.85;;
37943;SDS011;23767;42.024;23.086;2023-03-04T15:19:28;14.90;;;10.65;;
37943;SDS011;23767;42.024;23.086;2023-03-04T15:24:20;18.42;;;11.73;;
37943;SDS011;23767;42.024;23.086;2023-03-04T15:26:46;16.40;;;10.82;;
37943;SDS011;23767;42.024;23.086;2023-03-04T15:29:15;15.98;;;11.65;;
37943;SDS011;23767;42.024;23.086;2023-03-04T15:31:42;17.00;;;10.98;;
37943;SDS011;23767;42.024;23.086;2023-03-04T15:34:15;16.55;;;10.55;;
37943;SDS011;23767;42.024;23.086;2023-03-04T15:36:43;16.30;;;10.40;;
37943;SDS011;23767;42.024;23.086;2023-03-04T15:39:11;14.70;;;9.68;;
37943;SDS011;23767;42.024;23.086;2023-03-04T15:41:38;14.05;;;10.00;;
37943;SDS011;23767;42.024;23.086;2023-03-04T15:44:04;17.60;;;10.18;;
37943;SDS011;23767;42.024;23.086;2023-03-04T15:46:30;18.42;;;10.73;;
37943;SDS011;23767;42.024;23.086;2023-03-04T15:48:56;15.52;;;9.60;;
37943;SDS011;23767;42.024;23.086;2023-03-04T15:51:22;16.02;;;9.43;;
37943;SDS011;23767;42.024;23.086;2023-03-04T15:53:49;13.07;;;9.57;;
37943;SDS011;23767;42.024;23.086;2023-03-04T15:56:22;14.90;;;9.40;;
37943;SDS011;23767;42.024;23.086;2023-03-04T16:01:33;15.82;;;10.27;;
37943;SDS011;23767;42.024;23.086;2023-03-04T16:03:59;16.70;;;10.60;;
37943;SDS011;23767;42.024;23.086;2023-03-04T16:06:26;15.40;;;11.23;;
37943;SDS011;23767;42.024;23.086;2023-03-04T16:08:53;16.98;;;11.18;;
37943;SDS011;23767;42.024;23.086;2023-03-04T16:11:20;19.23;;;12.15;;
37943;SDS011;23767;42.024;23.086;2023-03-04T16:13:47;15.80;;;12.23;;
37943;SDS011;23767;42.024;23.086;2023-03-04T16:16:13;16.67;;;12.02;;
37943;SDS011;23767;42.024;23.086;2023-03-04T16:18:39;15.10;;;12.30;;
37943;SDS011;23767;42.024;23.086;2023-03-04T16:21:06;19.60;;;12.68;;
37943;SDS011;23767;42.024;23.086;2023-03-04T16:23:42;21.15;;;13.73;;
37943;SDS011;23767;42.024;23.086;2023-03-04T16:26:10;20.45;;;13.38;;
37943;SDS011;23767;42.024;23.086;2023-03-04T16:28:37;19.27;;;13.55;;